createdAt,value
2019-06-15T00:01:22.576Z,17.00
2019-06-15T00:04:03.342Z,17.10
2019-06-15T00:06:44.334Z,17.00
2019-06-15T00:09:24.540Z,17.00
2019-06-15T00:12:05.525Z,16.90
2019-06-15T00:14:46.360Z,17.00
2019-06-15T00:17:26.907Z,17.10
2019-06-15T00:20:07.328Z,17.20
2019-06-15T00:22:48.129Z,16.90
2019-06-15T00:25:28.718Z,16.80
2019-06-15T00:28:09.233Z,16.60
2019-06-15T00:30:50.262Z,16.80
2019-06-15T00:33:31.052Z,16.90
2019-06-15T00:36:11.663Z,16.90
2019-06-15T00:41:52.166Z,16.70
2019-06-15T00:44:40.413Z,16.70
2019-06-15T00:47:28.179Z,16.50
2019-06-15T00:50:16.043Z,16.40
2019-06-15T00:53:03.816Z,16.40
2019-06-15T00:55:51.605Z,16.40
2019-06-15T00:58:39.383Z,16.30
2019-06-15T01:01:20.391Z,16.40
2019-06-15T01:04:01.069Z,16.60
2019-06-15T01:06:41.932Z,16.70
2019-06-15T01:09:22.695Z,16.80
2019-06-15T01:12:03.768Z,17.00
2019-06-15T01:14:44.408Z,17.10
2019-06-15T01:17:25.141Z,17.10
2019-06-15T01:20:05.637Z,17.10
2019-06-15T01:22:46.698Z,17.10
2019-06-15T01:25:27.211Z,17.00
2019-06-15T01:28:08.340Z,16.90
2019-06-15T01:30:49.100Z,16.40
2019-06-15T01:33:29.814Z,16.40
2019-06-15T01:36:10.327Z,16.30
2019-06-15T01:38:51.264Z,16.20
2019-06-15T01:41:32.085Z,16.30
2019-06-15T01:44:12.793Z,16.40
2019-06-15T01:46:53.643Z,16.70
2019-06-15T01:49:34.203Z,16.70
2019-06-15T01:52:15.046Z,16.90
2019-06-15T01:54:55.513Z,16.90
2019-06-15T01:57:36.321Z,16.90
2019-06-15T02:00:17.164Z,16.90
2019-06-15T02:02:57.958Z,17.00
2019-06-15T02:05:38.828Z,17.10
2019-06-15T02:08:19.539Z,17.10
2019-06-15T02:10:47.993Z,16.90
2019-06-15T02:13:35.749Z,17.00
2019-06-15T02:16:23.527Z,17.10
2019-06-15T02:19:11.460Z,17.00
2019-06-15T02:21:59.228Z,17.00
2019-06-15T02:24:47.001Z,17.10
2019-06-15T02:27:34.855Z,17.00
2019-06-15T02:30:43.404Z,16.60
2019-06-15T02:33:11.853Z,16.60
2019-06-15T02:35:59.650Z,16.70
2019-06-15T02:38:47.411Z,16.80
2019-06-15T02:41:35.269Z,16.80
2019-06-15T02:44:23.026Z,16.80
2019-06-15T02:47:10.812Z,16.80
2019-06-15T02:49:58.570Z,16.70
2019-06-15T02:52:46.339Z,16.40
2019-06-15T02:55:34.109Z,16.30
2019-06-15T02:58:21.882Z,16.30
2019-06-15T03:01:10.434Z,16.40
2019-06-15T03:03:38.858Z,16.40
2019-06-15T03:06:26.935Z,16.40
2019-06-15T03:09:15.072Z,16.30
2019-06-15T03:12:02.841Z,16.10
2019-06-15T03:14:50.601Z,16.10
2019-06-15T03:17:38.385Z,16.00
2019-06-15T03:20:26.144Z,16.00
2019-06-15T03:23:14.259Z,15.90
2019-06-15T03:26:05.543Z,15.90
2019-06-15T03:28:51.526Z,15.70
2019-06-15T03:31:39.385Z,15.80
2019-06-15T03:34:27.151Z,15.70
2019-06-15T03:37:14.936Z,15.70
2019-06-15T03:40:03.172Z,15.70
2019-06-15T03:42:31.619Z,15.60
2019-06-15T03:45:19.379Z,15.70
2019-06-15T03:48:07.178Z,15.70
2019-06-15T03:50:54.942Z,15.80
2019-06-15T03:53:42.720Z,15.80
2019-06-15T03:56:30.483Z,15.80
2019-06-15T03:59:18.267Z,15.60
2019-06-15T04:01:59.431Z,15.60
2019-06-15T04:04:40.317Z,15.60
2019-06-15T04:07:20.966Z,15.60
2019-06-15T04:10:01.870Z,15.60
2019-06-15T04:12:42.917Z,15.60
2019-06-15T04:15:23.590Z,15.60
2019-06-15T04:17:52.038Z,15.50
2019-06-15T04:20:39.789Z,15.70
2019-06-15T04:23:08.231Z,15.70
2019-06-15T04:25:55.990Z,15.60
2019-06-15T04:28:43.783Z,15.80
2019-06-15T04:31:31.555Z,15.90
2019-06-15T04:33:59.996Z,16.00
2019-06-15T04:36:28.424Z,16.10
2019-06-15T04:39:16.198Z,16.10
2019-06-15T04:41:44.619Z,16.10
2019-06-15T04:44:32.404Z,16.00
2019-06-15T04:47:20.247Z,16.20
2019-06-15T04:50:08.166Z,16.10
2019-06-15T04:52:55.955Z,16.20
2019-06-15T04:55:43.782Z,16.20
2019-06-15T04:58:31.567Z,16.40
2019-06-15T05:01:19.326Z,16.50
2019-06-15T05:03:59.971Z,16.60
2019-06-15T05:06:40.721Z,16.70
2019-06-15T05:09:09.163Z,16.70
2019-06-15T05:11:56.937Z,16.80
2019-06-15T05:14:44.717Z,16.90
2019-06-15T05:17:32.486Z,16.80
2019-06-15T05:20:20.250Z,17.20
2019-06-15T05:23:08.038Z,17.50
2019-06-15T05:25:55.793Z,17.70
2019-06-15T05:28:43.621Z,18.00
2019-06-15T05:31:31.417Z,18.10
2019-06-15T05:34:19.195Z,18.40
2019-06-15T05:36:47.619Z,18.70
2019-06-15T05:39:35.392Z,18.90
2019-06-15T05:42:23.242Z,19.10
2019-06-15T05:45:11.357Z,19.30
2019-06-15T05:47:59.142Z,19.50
2019-06-15T05:50:46.909Z,19.60
2019-06-15T05:53:34.683Z,19.40
2019-06-15T05:56:22.755Z,19.60
2019-06-15T05:59:10.526Z,19.80
2019-06-15T06:01:50.924Z,19.90
2019-06-15T06:04:31.469Z,19.90
2019-06-15T06:07:12.458Z,19.70
2019-06-15T06:09:53.099Z,19.60
2019-06-15T06:12:33.932Z,19.70
2019-06-15T06:15:14.534Z,20.20
2019-06-15T06:17:55.272Z,20.70
2019-06-15T06:20:36.356Z,20.70
2019-06-15T06:23:16.833Z,20.70
2019-06-15T06:25:57.524Z,20.70
2019-06-15T06:28:38.087Z,20.60
2019-06-15T06:31:18.502Z,20.70
2019-06-15T06:33:59.303Z,20.90
2019-06-15T06:36:39.924Z,21.20
2019-06-15T06:39:20.840Z,21.20
2019-06-15T06:42:01.459Z,21.60
2019-06-15T06:44:42.053Z,21.70
2019-06-15T06:47:23.155Z,21.50
2019-06-15T06:50:03.801Z,21.70
2019-06-15T06:52:44.514Z,22.10
2019-06-15T06:55:25.368Z,22.50
2019-06-15T06:58:06.041Z,22.70
2019-06-15T07:00:46.946Z,22.90
2019-06-15T07:03:27.432Z,22.40
2019-06-15T07:06:08.174Z,22.40
2019-06-15T07:08:49.048Z,22.80
2019-06-15T07:11:29.883Z,23.30
2019-06-15T07:14:10.585Z,23.10
2019-06-15T07:16:51.422Z,23.10
2019-06-15T07:19:32.215Z,22.60
2019-06-15T07:22:13.217Z,22.30
2019-06-15T07:24:53.868Z,22.30
2019-06-15T07:27:34.558Z,22.40
2019-06-15T07:30:15.236Z,22.30
2019-06-15T07:32:55.900Z,22.30
2019-06-15T07:35:36.989Z,22.40
2019-06-15T07:38:17.906Z,22.40
2019-06-15T07:40:58.577Z,22.60
2019-06-15T07:43:39.617Z,22.80
2019-06-15T07:46:20.458Z,22.90
2019-06-15T07:48:48.914Z,23.40
2019-06-15T07:51:36.654Z,23.60
2019-06-15T07:54:24.447Z,23.60
2019-06-15T07:57:12.293Z,23.20
2019-06-15T08:00:00.090Z,23.40
2019-06-15T08:02:40.932Z,23.30
2019-06-15T08:05:21.776Z,23.20
2019-06-15T08:08:02.628Z,23.10
2019-06-15T08:10:43.411Z,23.30
2019-06-15T08:13:24.047Z,23.80
2019-06-15T08:16:04.732Z,24.10
2019-06-15T08:18:45.286Z,24.20
2019-06-15T08:21:26.335Z,24.50
2019-06-15T08:24:07.029Z,24.60
2019-06-15T08:26:47.977Z,24.20
2019-06-15T08:29:28.778Z,24.00
2019-06-15T08:32:09.559Z,24.00
2019-06-15T08:34:50.270Z,23.80
2019-06-15T08:37:31.012Z,24.00
2019-06-15T08:40:11.802Z,23.80
2019-06-15T08:42:52.493Z,24.10
2019-06-15T08:45:33.464Z,23.90
2019-06-15T08:48:14.382Z,24.00
2019-06-15T08:50:55.748Z,24.00
2019-06-15T08:53:24.342Z,24.00
2019-06-15T08:56:12.361Z,23.50
2019-06-15T08:59:00.324Z,23.60
2019-06-15T09:01:41.350Z,23.60
2019-06-15T09:04:21.905Z,23.60
2019-06-15T09:07:02.733Z,23.70
2019-06-15T09:09:43.662Z,23.70
2019-06-15T09:12:25.158Z,23.50
2019-06-15T09:15:06.378Z,23.60
2019-06-15T09:17:46.843Z,23.70
2019-06-15T09:20:27.318Z,23.40
2019-06-15T09:22:55.744Z,23.20
2019-06-15T09:25:43.538Z,23.10
2019-06-15T09:28:31.302Z,23.10
2019-06-15T09:31:19.085Z,23.10
2019-06-15T09:34:18.454Z,22.90
2019-06-15T09:36:56.339Z,23.00
2019-06-15T09:39:44.123Z,23.10
2019-06-15T09:42:31.906Z,23.20
2019-06-15T09:45:19.690Z,23.10
2019-06-15T09:48:07.458Z,23.00
2019-06-15T09:50:55.565Z,23.20
2019-06-15T09:53:43.381Z,23.30
2019-06-15T09:56:31.165Z,23.30
2019-06-15T09:59:25.910Z,23.30
2019-06-15T10:02:01.171Z,23.20
2019-06-15T10:04:41.401Z,23.00
2019-06-15T10:07:22.450Z,22.90
2019-06-15T10:10:03.095Z,22.80
2019-06-15T10:12:44.144Z,23.00
2019-06-15T10:15:24.982Z,23.10
2019-06-15T10:18:05.959Z,23.20
2019-06-15T10:20:46.589Z,23.00
2019-06-15T10:23:27.246Z,23.10
2019-06-15T10:26:08.179Z,23.40
2019-06-15T10:28:49.215Z,23.40
2019-06-15T10:31:30.086Z,23.60
2019-06-15T10:34:10.723Z,23.40
2019-06-15T10:36:51.819Z,23.50
2019-06-15T10:39:32.268Z,23.50
2019-06-15T10:42:13.460Z,23.40
2019-06-15T10:44:54.485Z,23.20
2019-06-15T10:47:35.228Z,23.20
2019-06-15T10:50:16.244Z,23.40
2019-06-15T10:52:56.939Z,23.50
2019-06-15T10:55:37.720Z,23.90
2019-06-15T10:58:18.207Z,24.10
2019-06-15T11:00:58.942Z,24.30
2019-06-15T11:03:39.992Z,24.70
2019-06-15T11:06:20.543Z,24.60
2019-06-15T11:09:01.030Z,24.20
2019-06-15T11:11:41.774Z,24.20
2019-06-15T11:14:22.588Z,24.20
2019-06-15T11:17:03.523Z,24.10
2019-06-15T11:19:44.353Z,24.10
2019-06-15T11:22:24.931Z,24.60
2019-06-15T11:25:05.935Z,24.50
2019-06-15T11:27:46.512Z,24.50
2019-06-15T11:30:27.351Z,24.50
2019-06-15T11:33:08.111Z,24.20
2019-06-15T11:35:49.116Z,24.10
2019-06-15T11:38:29.751Z,23.90
2019-06-15T11:41:10.694Z,24.00
2019-06-15T11:43:51.664Z,24.40
2019-06-15T11:46:32.332Z,24.40
2019-06-15T11:49:13.018Z,24.20
2019-06-15T11:51:53.669Z,24.00
2019-06-15T11:54:34.517Z,24.00
2019-06-15T11:57:14.960Z,24.30
2019-06-15T11:59:55.792Z,24.40
2019-06-15T12:02:36.562Z,24.40
2019-06-15T12:05:17.479Z,24.40
2019-06-15T12:07:58.342Z,24.10
2019-06-15T12:10:38.933Z,24.10
2019-06-15T12:13:19.697Z,24.00
2019-06-15T12:16:00.719Z,24.30
2019-06-15T12:18:41.247Z,24.60
2019-06-15T12:21:21.675Z,24.80
2019-06-15T12:24:02.523Z,24.90
2019-06-15T12:26:43.380Z,25.00
2019-06-15T12:29:23.872Z,25.30
2019-06-15T12:32:04.369Z,25.50
2019-06-15T12:34:45.110Z,25.20
2019-06-15T12:37:26.128Z,24.60
2019-06-15T12:40:06.785Z,24.80
2019-06-15T12:42:47.762Z,24.80
2019-06-15T12:45:28.668Z,24.80
2019-06-15T12:48:09.206Z,24.90
2019-06-15T12:50:49.759Z,25.10
2019-06-15T12:53:30.719Z,25.40
2019-06-15T12:56:11.968Z,25.60
2019-06-15T12:58:52.330Z,25.80
2019-06-15T13:01:32.866Z,25.90
2019-06-15T13:04:13.338Z,25.80
2019-06-15T13:06:54.241Z,25.20
2019-06-15T13:09:35.241Z,25.20
2019-06-15T13:12:15.971Z,25.00
2019-06-15T13:14:56.841Z,25.10
2019-06-15T13:17:37.653Z,25.50
2019-06-15T13:20:18.367Z,25.30
2019-06-15T13:22:59.214Z,25.20
2019-06-15T13:25:39.970Z,25.50
2019-06-15T13:28:21.182Z,25.90
2019-06-15T13:31:14.876Z,26.50
2019-06-15T13:33:44.922Z,26.20
2019-06-15T13:36:25.824Z,26.30
2019-06-15T13:39:06.697Z,26.10
2019-06-15T13:41:47.191Z,26.10
2019-06-15T13:44:27.799Z,26.00
2019-06-15T13:47:08.675Z,25.90
2019-06-15T13:49:49.531Z,26.00
2019-06-15T13:52:30.348Z,26.10
2019-06-15T13:55:11.421Z,26.10
2019-06-15T13:57:52.210Z,25.70
2019-06-15T14:00:32.830Z,25.70
2019-06-15T14:03:13.620Z,26.00
2019-06-15T14:05:53.833Z,26.00
2019-06-15T14:08:34.489Z,25.60
2019-06-15T14:11:15.182Z,25.50
2019-06-15T14:13:56.366Z,25.50
2019-06-15T14:16:36.913Z,25.70
2019-06-15T14:19:17.544Z,25.90
2019-06-15T14:21:58.401Z,25.90
2019-06-15T14:24:38.819Z,25.70
2019-06-15T14:27:19.353Z,26.20
2019-06-15T14:30:00.169Z,26.20
2019-06-15T14:32:40.706Z,26.10
2019-06-15T14:35:21.483Z,26.20
2019-06-15T14:38:02.085Z,26.20
2019-06-15T14:40:42.919Z,26.20
2019-06-15T14:43:23.560Z,26.30
2019-06-15T14:46:04.402Z,26.30
2019-06-15T14:48:44.894Z,26.00
2019-06-15T14:51:25.258Z,26.20
2019-06-15T14:54:06.679Z,26.00
2019-06-15T14:56:47.512Z,26.10
2019-06-15T14:59:28.191Z,26.00
2019-06-15T15:02:13.704Z,25.90
2019-06-15T15:04:51.791Z,25.80
2019-06-15T15:07:20.223Z,26.00
2019-06-15T15:10:28.777Z,25.90
2019-06-15T15:13:16.576Z,25.90
2019-06-15T15:16:07.046Z,25.90
2019-06-15T15:18:53.907Z,26.20
2019-06-15T15:21:41.752Z,26.50
2019-06-15T15:24:29.517Z,26.20
2019-06-15T15:27:17.279Z,26.40
2019-06-15T15:30:27.090Z,26.40
2019-06-15T15:33:15.303Z,26.40
2019-06-15T15:36:03.083Z,26.20
2019-06-15T15:38:50.871Z,26.20
2019-06-15T15:41:38.635Z,26.00
2019-06-15T15:44:27.057Z,26.00
2019-06-15T15:47:16.220Z,25.90
2019-06-15T15:50:26.410Z,26.00
2019-06-15T15:53:15.619Z,25.60
2019-06-15T15:56:03.368Z,25.50
2019-06-15T15:58:51.176Z,25.40
2019-06-15T16:01:38.957Z,25.40
2019-06-15T16:04:19.455Z,25.40
2019-06-15T16:07:00.146Z,25.50
2019-06-15T16:09:41.089Z,25.40
2019-06-15T16:12:21.984Z,25.60
2019-06-15T16:15:02.733Z,25.40
2019-06-15T16:17:46.349Z,25.10
2019-06-15T16:20:26.615Z,25.00
2019-06-15T16:23:07.874Z,25.10
2019-06-15T16:25:48.544Z,25.00
2019-06-15T16:28:29.463Z,25.10
2019-06-15T16:31:13.864Z,25.30
2019-06-15T16:33:53.351Z,25.30
2019-06-15T16:36:36.331Z,25.40
2019-06-15T16:39:17.081Z,25.40
2019-06-15T16:41:57.759Z,25.20
2019-06-15T16:44:38.307Z,25.30
2019-06-15T16:47:19.042Z,25.30
2019-06-15T16:50:00.103Z,25.20
2019-06-15T16:52:40.768Z,25.30
2019-06-15T16:55:21.641Z,25.10
2019-06-15T16:58:02.283Z,25.00
2019-06-15T17:00:43.170Z,25.00
2019-06-15T17:03:26.102Z,25.00
2019-06-15T17:06:07.291Z,25.00
2019-06-15T17:08:47.753Z,24.90
2019-06-15T17:11:28.801Z,25.00
2019-06-15T17:14:09.707Z,24.90
2019-06-15T17:16:50.694Z,25.00
2019-06-15T17:19:19.169Z,25.00
2019-06-15T17:22:18.638Z,24.80
2019-06-15T17:24:56.629Z,25.00
2019-06-15T17:27:46.854Z,24.80
2019-06-15T17:30:33.969Z,24.90
2019-06-15T17:33:34.205Z,24.70
2019-06-15T17:36:11.255Z,24.70
2019-06-15T17:38:59.019Z,24.60
2019-06-15T17:41:47.388Z,24.60
2019-06-15T17:44:36.993Z,24.50
2019-06-15T17:47:26.336Z,24.50
2019-06-15T17:50:17.092Z,24.40
2019-06-15T17:53:06.951Z,24.50
2019-06-15T17:55:56.084Z,24.50
2019-06-15T17:58:46.384Z,24.50
2019-06-15T18:01:36.265Z,24.30
2019-06-15T18:04:16.681Z,24.20
2019-06-15T18:06:57.981Z,24.30
2019-06-15T18:09:38.239Z,24.30
2019-06-15T18:12:19.037Z,24.30
2019-06-15T18:14:59.880Z,24.40
2019-06-15T18:17:40.297Z,24.30
2019-06-15T18:20:21.466Z,24.20
2019-06-15T18:23:02.507Z,24.00
2019-06-15T18:25:43.180Z,23.80
2019-06-15T18:28:26.313Z,23.90
2019-06-15T18:31:06.779Z,23.80
2019-06-15T18:33:47.434Z,23.70
2019-06-15T18:36:27.734Z,23.80
2019-06-15T18:39:08.532Z,23.70
2019-06-15T18:41:49.202Z,23.40
2019-06-15T18:44:30.274Z,23.10
2019-06-15T18:47:10.820Z,23.00
2019-06-15T18:49:51.438Z,23.10
2019-06-15T18:52:33.139Z,22.90
2019-06-15T18:55:13.737Z,22.80
2019-06-15T18:57:56.677Z,22.80
2019-06-15T19:00:37.264Z,22.30
2019-06-15T19:03:17.818Z,22.20
2019-06-15T19:05:58.637Z,22.00
2019-06-15T19:08:39.391Z,21.90
2019-06-15T19:11:19.998Z,21.80
2019-06-15T19:14:00.778Z,21.50
2019-06-15T19:16:41.380Z,21.30
2019-06-15T19:19:21.803Z,21.30
2019-06-15T19:22:02.358Z,21.10
2019-06-15T19:24:42.932Z,20.90
2019-06-15T19:27:25.964Z,20.60
2019-06-15T19:30:07.296Z,20.50
2019-06-15T19:32:36.837Z,20.40
2019-06-15T19:35:26.305Z,20.30
2019-06-15T19:38:16.168Z,20.30
2019-06-15T19:41:06.720Z,20.00
2019-06-15T19:43:53.769Z,19.80
2019-06-15T19:46:41.537Z,19.60
2019-06-15T19:49:10.041Z,19.70
2019-06-15T19:51:57.807Z,19.50
2019-06-15T19:54:45.587Z,19.40
2019-06-15T19:57:36.010Z,19.50
2019-06-15T20:00:22.841Z,19.20
2019-06-15T20:03:06.881Z,19.20
2019-06-15T20:05:46.238Z,19.10
2019-06-15T20:08:26.894Z,18.90
2019-06-15T20:11:07.535Z,18.80
2019-06-15T20:13:48.246Z,19.00
2019-06-15T20:16:29.301Z,18.80
2019-06-15T20:19:10.124Z,18.80
2019-06-15T20:21:50.761Z,18.70
2019-06-15T20:24:31.478Z,18.70
2019-06-15T20:27:12.018Z,18.60
2019-06-15T20:29:52.975Z,18.60
2019-06-15T20:32:33.765Z,18.40
2019-06-15T20:35:20.593Z,18.40
2019-06-15T20:37:57.173Z,18.40
2019-06-15T20:40:37.877Z,18.10
2019-06-15T20:43:07.588Z,18.00
2019-06-15T20:45:56.250Z,18.00
2019-06-15T20:48:47.060Z,17.90
2019-06-15T20:51:37.050Z,17.90
2019-06-15T20:54:24.269Z,17.90
2019-06-15T20:57:12.043Z,17.90
2019-06-15T20:59:59.800Z,17.90
2019-06-15T21:02:40.358Z,18.00
2019-06-15T21:05:34.794Z,18.10
2019-06-15T21:08:06.644Z,18.00
2019-06-15T21:10:46.483Z,18.10
2019-06-15T21:13:26.942Z,18.00
2019-06-15T21:16:07.503Z,17.90
2019-06-15T21:18:48.276Z,18.00
2019-06-15T21:21:16.717Z,17.80
2019-06-15T21:24:06.455Z,17.70
2019-06-15T21:26:56.268Z,17.40
2019-06-15T21:29:43.462Z,17.50
2019-06-15T21:32:31.243Z,17.50
2019-06-15T21:35:19.007Z,17.80
2019-06-15T21:37:47.442Z,17.90
2019-06-15T21:40:36.874Z,18.00
2019-06-15T21:43:26.548Z,18.00
2019-06-15T21:46:16.707Z,17.70
2019-06-15T21:49:03.683Z,17.50
2019-06-15T21:51:51.468Z,17.00
2019-06-15T21:54:39.228Z,16.90
2019-06-15T21:57:27.166Z,16.90
2019-06-15T22:00:36.816Z,17.10
2019-06-15T22:03:17.102Z,17.30
2019-06-15T22:06:03.426Z,17.50
2019-06-15T22:08:38.632Z,17.50
2019-06-15T22:11:26.710Z,17.50
2019-06-15T22:14:17.121Z,17.60
2019-06-15T22:17:06.806Z,17.50
2019-06-15T22:19:56.931Z,17.60
2019-06-15T22:22:46.889Z,17.60
2019-06-15T22:25:35.980Z,17.70
2019-06-15T22:28:23.402Z,17.60
2019-06-15T22:31:11.164Z,17.70
2019-06-15T22:33:58.946Z,17.70
2019-06-15T22:36:47.951Z,17.70
2019-06-15T22:39:37.150Z,17.70
2019-06-15T22:42:06.878Z,17.80
2019-06-15T22:44:56.851Z,17.70
2019-06-15T22:47:46.747Z,17.70
2019-06-15T22:50:36.082Z,17.70
2019-06-15T22:53:26.963Z,17.70
2019-06-15T22:56:13.843Z,17.60
2019-06-15T22:59:01.614Z,17.60
2019-06-15T23:01:49.383Z,17.60
2019-06-15T23:04:29.721Z,17.60
2019-06-15T23:07:10.402Z,17.60
2019-06-15T23:09:38.846Z,17.40
2019-06-15T23:12:26.623Z,17.50
2019-06-15T23:15:14.463Z,17.60
2019-06-15T23:18:02.304Z,17.50
2019-06-15T23:20:50.064Z,17.20
2019-06-15T23:23:37.834Z,16.90
2019-06-15T23:26:25.611Z,16.90
2019-06-15T23:29:13.465Z,17.10
2019-06-15T23:32:01.224Z,17.30
2019-06-15T23:34:49.130Z,17.50
2019-06-15T23:37:37.560Z,17.60
2019-06-15T23:43:36.222Z,17.40
2019-06-15T23:46:26.934Z,17.50
2019-06-15T23:49:16.268Z,17.30
2019-06-15T23:52:03.456Z,17.30
2019-06-15T23:54:51.218Z,17.50
2019-06-15T23:57:19.644Z,17.50
